sensor_id;sensor_type;location;lat;lon;timestamp;P1;durP1;ratioP1;P2;durP2;ratioP2
10687;SDS011;5392;42.688;23.298;2023-07-31T00:00:06;3.45;;;0.90;;
10687;SDS011;5392;42.688;23.298;2023-07-31T00:02:35;0.98;;;0.90;;
10687;SDS011;5392;42.688;23.298;2023-07-31T00:05:01;1.05;;;1.05;;
10687;SDS011;5392;42.688;23.298;2023-07-31T00:07:28;0.85;;;0.70;;
10687;SDS011;5392;42.688;23.298;2023-07-31T00:09:55;1.08;;;0.90;;
10687;SDS011;5392;42.688;23.298;2023-07-31T00:12:23;1.25;;;1.15;;
10687;SDS011;5392;42.688;23.298;2023-07-31T00:14:50;0.85;;;0.85;;
10687;SDS011;5392;42.688;23.298;2023-07-31T00:17:17;0.80;;;0.80;;
10687;SDS011;5392;42.688;23.298;2023-07-31T00:19:43;0.95;;;0.95;;
10687;SDS011;5392;42.688;23.298;2023-07-31T00:22:12;0.80;;;0.80;;
10687;SDS011;5392;42.688;23.298;2023-07-31T00:24:39;1.10;;;1.10;;
10687;SDS011;5392;42.688;23.298;2023-07-31T00:27:05;1.45;;;1.05;;
10687;SDS011;5392;42.688;23.298;2023-07-31T00:29:32;1.25;;;1.00;;
10687;SDS011;5392;42.688;23.298;2023-07-31T00:31:59;1.77;;;1.40;;
10687;SDS011;5392;42.688;23.298;2023-07-31T00:34:26;2.63;;;1.85;;
10687;SDS011;5392;42.688;23.298;2023-07-31T00:36:53;1.60;;;1.58;;
10687;SDS011;5392;42.688;23.298;2023-07-31T00:39:20;1.58;;;1.48;;
10687;SDS011;5392;42.688;23.298;2023-07-31T00:41:46;1.85;;;1.75;;
10687;SDS011;5392;42.688;23.298;2023-07-31T00:44:13;2.08;;;2.08;;
10687;SDS011;5392;42.688;23.298;2023-07-31T00:46:40;3.63;;;2.45;;
10687;SDS011;5392;42.688;23.298;2023-07-31T00:49:07;2.72;;;2.72;;
10687;SDS011;5392;42.688;23.298;2023-07-31T00:51:35;3.67;;;3.50;;
10687;SDS011;5392;42.688;23.298;2023-07-31T00:54:02;4.40;;;4.10;;
10687;SDS011;5392;42.688;23.298;2023-07-31T00:56:29;4.55;;;4.35;;
10687;SDS011;5392;42.688;23.298;2023-07-31T00:58:57;7.85;;;7.35;;
10687;SDS011;5392;42.688;23.298;2023-07-31T01:01:24;14.90;;;13.90;;
10687;SDS011;5392;42.688;23.298;2023-07-31T01:03:50;22.00;;;19.92;;
10687;SDS011;5392;42.688;23.298;2023-07-31T01:09:02;13.90;;;12.60;;
10687;SDS011;5392;42.688;23.298;2023-07-31T01:11:34;9.63;;;8.95;;
10687;SDS011;5392;42.688;23.298;2023-07-31T01:14:05;9.18;;;8.57;;
10687;SDS011;5392;42.688;23.298;2023-07-31T01:16:32;7.93;;;7.53;;
10687;SDS011;5392;42.688;23.298;2023-07-31T01:18:58;8.57;;;7.97;;
10687;SDS011;5392;42.688;23.298;2023-07-31T01:27:04;12.73;;;11.73;;
10687;SDS011;5392;42.688;23.298;2023-07-31T01:32:21;12.15;;;11.35;;
10687;SDS011;5392;42.688;23.298;2023-07-31T01:34:49;13.45;;;12.48;;
10687;SDS011;5392;42.688;23.298;2023-07-31T01:37:16;14.57;;;13.40;;
10687;SDS011;5392;42.688;23.298;2023-07-31T01:39:43;14.88;;;13.68;;
10687;SDS011;5392;42.688;23.298;2023-07-31T01:42:09;15.80;;;14.70;;
10687;SDS011;5392;42.688;23.298;2023-07-31T01:44:36;17.45;;;16.25;;
10687;SDS011;5392;42.688;23.298;2023-07-31T01:47:03;19.08;;;17.52;;
10687;SDS011;5392;42.688;23.298;2023-07-31T01:49:30;18.88;;;17.38;;
10687;SDS011;5392;42.688;23.298;2023-07-31T01:51:56;20.05;;;18.45;;
10687;SDS011;5392;42.688;23.298;2023-07-31T01:54:23;21.10;;;19.10;;
10687;SDS011;5392;42.688;23.298;2023-07-31T01:56:50;20.83;;;19.02;;
10687;SDS011;5392;42.688;23.298;2023-07-31T01:59:16;21.90;;;20.00;;
10687;SDS011;5392;42.688;23.298;2023-07-31T02:01:43;22.85;;;20.85;;
10687;SDS011;5392;42.688;23.298;2023-07-31T02:04:10;22.38;;;20.45;;
10687;SDS011;5392;42.688;23.298;2023-07-31T02:06:38;22.77;;;20.73;;
10687;SDS011;5392;42.688;23.298;2023-07-31T02:09:05;23.15;;;21.15;;
10687;SDS011;5392;42.688;23.298;2023-07-31T02:11:32;23.52;;;21.50;;
10687;SDS011;5392;42.688;23.298;2023-07-31T02:13:59;24.17;;;21.92;;
10687;SDS011;5392;42.688;23.298;2023-07-31T02:19:11;23.95;;;21.70;;
10687;SDS011;5392;42.688;23.298;2023-07-31T02:21:37;23.83;;;21.70;;
10687;SDS011;5392;42.688;23.298;2023-07-31T02:24:04;23.90;;;21.90;;
10687;SDS011;5392;42.688;23.298;2023-07-31T02:26:31;24.05;;;21.88;;
10687;SDS011;5392;42.688;23.298;2023-07-31T02:28:58;24.23;;;22.10;;
10687;SDS011;5392;42.688;23.298;2023-07-31T02:31:25;25.13;;;22.67;;
10687;SDS011;5392;42.688;23.298;2023-07-31T02:33:52;24.45;;;22.20;;
10687;SDS011;5392;42.688;23.298;2023-07-31T02:36:19;24.08;;;21.88;;
10687;SDS011;5392;42.688;23.298;2023-07-31T02:38:46;24.70;;;22.60;;
10687;SDS011;5392;42.688;23.298;2023-07-31T02:41:12;24.50;;;22.40;;
10687;SDS011;5392;42.688;23.298;2023-07-31T02:43:39;24.45;;;22.33;;
10687;SDS011;5392;42.688;23.298;2023-07-31T02:46:06;27.02;;;22.95;;
10687;SDS011;5392;42.688;23.298;2023-07-31T02:48:32;24.15;;;22.05;;
10687;SDS011;5392;42.688;23.298;2023-07-31T02:50:59;23.67;;;21.35;;
10687;SDS011;5392;42.688;23.298;2023-07-31T02:53:26;22.50;;;20.40;;
10687;SDS011;5392;42.688;23.298;2023-07-31T02:55:53;22.13;;;20.23;;
10687;SDS011;5392;42.688;23.298;2023-07-31T02:58:19;22.73;;;20.92;;
10687;SDS011;5392;42.688;23.298;2023-07-31T03:00:46;21.35;;;19.40;;
10687;SDS011;5392;42.688;23.298;2023-07-31T03:03:12;21.48;;;19.63;;
10687;SDS011;5392;42.688;23.298;2023-07-31T03:05:39;22.65;;;20.40;;
10687;SDS011;5392;42.688;23.298;2023-07-31T03:08:06;22.30;;;19.98;;
10687;SDS011;5392;42.688;23.298;2023-07-31T03:10:33;22.20;;;20.20;;
10687;SDS011;5392;42.688;23.298;2023-07-31T03:12:59;20.95;;;19.38;;
10687;SDS011;5392;42.688;23.298;2023-07-31T03:15:26;20.75;;;19.15;;
10687;SDS011;5392;42.688;23.298;2023-07-31T03:17:53;21.38;;;19.65;;
10687;SDS011;5392;42.688;23.298;2023-07-31T03:20:19;22.17;;;20.17;;
10687;SDS011;5392;42.688;23.298;2023-07-31T03:22:46;22.20;;;20.50;;
10687;SDS011;5392;42.688;23.298;2023-07-31T03:25:13;23.52;;;21.40;;
10687;SDS011;5392;42.688;23.298;2023-07-31T03:27:40;22.77;;;20.58;;
10687;SDS011;5392;42.688;23.298;2023-07-31T03:30:07;24.13;;;21.83;;
10687;SDS011;5392;42.688;23.298;2023-07-31T03:32:34;22.77;;;20.70;;
10687;SDS011;5392;42.688;23.298;2023-07-31T03:35:01;23.23;;;20.83;;
10687;SDS011;5392;42.688;23.298;2023-07-31T03:37:28;23.52;;;21.42;;
10687;SDS011;5392;42.688;23.298;2023-07-31T03:39:55;24.05;;;21.65;;
10687;SDS011;5392;42.688;23.298;2023-07-31T03:42:22;22.83;;;20.85;;
10687;SDS011;5392;42.688;23.298;2023-07-31T03:44:49;25.08;;;22.58;;
10687;SDS011;5392;42.688;23.298;2023-07-31T03:47:15;24.77;;;22.35;;
10687;SDS011;5392;42.688;23.298;2023-07-31T03:49:43;24.77;;;22.27;;
10687;SDS011;5392;42.688;23.298;2023-07-31T03:52:09;25.35;;;22.85;;
10687;SDS011;5392;42.688;23.298;2023-07-31T03:54:36;23.83;;;21.60;;
10687;SDS011;5392;42.688;23.298;2023-07-31T03:57:03;25.77;;;22.83;;
10687;SDS011;5392;42.688;23.298;2023-07-31T03:59:30;25.33;;;22.88;;
10687;SDS011;5392;42.688;23.298;2023-07-31T04:01:56;25.17;;;22.90;;
10687;SDS011;5392;42.688;23.298;2023-07-31T04:04:23;26.23;;;23.25;;
10687;SDS011;5392;42.688;23.298;2023-07-31T04:06:49;26.33;;;23.80;;
10687;SDS011;5392;42.688;23.298;2023-07-31T04:09:16;26.13;;;23.30;;
10687;SDS011;5392;42.688;23.298;2023-07-31T04:11:43;24.02;;;21.92;;
10687;SDS011;5392;42.688;23.298;2023-07-31T04:14:10;27.15;;;24.38;;
10687;SDS011;5392;42.688;23.298;2023-07-31T04:16:37;28.38;;;24.13;;
10687;SDS011;5392;42.688;23.298;2023-07-31T04:19:04;26.23;;;23.63;;
10687;SDS011;5392;42.688;23.298;2023-07-31T04:21:31;29.55;;;24.45;;
10687;SDS011;5392;42.688;23.298;2023-07-31T04:23:57;28.30;;;24.05;;
10687;SDS011;5392;42.688;23.298;2023-07-31T04:26:24;27.05;;;24.45;;
10687;SDS011;5392;42.688;23.298;2023-07-31T04:28:51;27.85;;;24.10;;
10687;SDS011;5392;42.688;23.298;2023-07-31T04:31:18;25.52;;;23.00;;
10687;SDS011;5392;42.688;23.298;2023-07-31T04:33:44;27.35;;;24.27;;
10687;SDS011;5392;42.688;23.298;2023-07-31T04:36:11;26.42;;;23.67;;
10687;SDS011;5392;42.688;23.298;2023-07-31T04:38:38;24.50;;;22.20;;
10687;SDS011;5392;42.688;23.298;2023-07-31T04:41:05;23.42;;;21.33;;
10687;SDS011;5392;42.688;23.298;2023-07-31T04:43:32;23.52;;;21.33;;
10687;SDS011;5392;42.688;23.298;2023-07-31T04:45:59;24.23;;;22.02;;
10687;SDS011;5392;42.688;23.298;2023-07-31T04:48:25;23.63;;;21.23;;
10687;SDS011;5392;42.688;23.298;2023-07-31T04:50:52;23.70;;;19.67;;
10687;SDS011;5392;42.688;23.298;2023-07-31T04:53:19;21.50;;;19.08;;
10687;SDS011;5392;42.688;23.298;2023-07-31T04:55:45;20.05;;;17.95;;
10687;SDS011;5392;42.688;23.298;2023-07-31T04:58:12;21.70;;;19.60;;
10687;SDS011;5392;42.688;23.298;2023-07-31T05:00:39;19.42;;;17.67;;
10687;SDS011;5392;42.688;23.298;2023-07-31T05:03:05;21.52;;;19.42;;
10687;SDS011;5392;42.688;23.298;2023-07-31T05:05:33;17.95;;;16.30;;
10687;SDS011;5392;42.688;23.298;2023-07-31T05:08:00;17.48;;;16.08;;
10687;SDS011;5392;42.688;23.298;2023-07-31T05:10:27;18.42;;;16.73;;
10687;SDS011;5392;42.688;23.298;2023-07-31T05:12:53;16.63;;;15.30;;
10687;SDS011;5392;42.688;23.298;2023-07-31T05:15:20;16.17;;;14.85;;
10687;SDS011;5392;42.688;23.298;2023-07-31T05:17:47;15.25;;;14.00;;
10687;SDS011;5392;42.688;23.298;2023-07-31T05:20:14;14.68;;;13.50;;
10687;SDS011;5392;42.688;23.298;2023-07-31T05:22:41;16.27;;;14.80;;
10687;SDS011;5392;42.688;23.298;2023-07-31T05:25:07;18.25;;;16.85;;
10687;SDS011;5392;42.688;23.298;2023-07-31T05:27:34;14.15;;;12.93;;
10687;SDS011;5392;42.688;23.298;2023-07-31T05:30:01;12.68;;;11.70;;
10687;SDS011;5392;42.688;23.298;2023-07-31T05:32:28;12.27;;;11.48;;
10687;SDS011;5392;42.688;23.298;2023-07-31T05:34:55;12.27;;;10.77;;
10687;SDS011;5392;42.688;23.298;2023-07-31T05:37:22;10.93;;;9.90;;
10687;SDS011;5392;42.688;23.298;2023-07-31T05:39:49;8.07;;;7.57;;
10687;SDS011;5392;42.688;23.298;2023-07-31T05:42:16;7.97;;;7.45;;
10687;SDS011;5392;42.688;23.298;2023-07-31T05:44:42;6.75;;;6.30;;
10687;SDS011;5392;42.688;23.298;2023-07-31T05:47:10;7.10;;;6.60;;
10687;SDS011;5392;42.688;23.298;2023-07-31T05:49:37;7.68;;;7.28;;
10687;SDS011;5392;42.688;23.298;2023-07-31T05:52:04;5.95;;;5.60;;
10687;SDS011;5392;42.688;23.298;2023-07-31T05:54:31;7.47;;;6.75;;
10687;SDS011;5392;42.688;23.298;2023-07-31T05:56:59;4.95;;;4.55;;
10687;SDS011;5392;42.688;23.298;2023-07-31T05:59:26;5.10;;;4.75;;
10687;SDS011;5392;42.688;23.298;2023-07-31T06:01:52;5.00;;;4.70;;
10687;SDS011;5392;42.688;23.298;2023-07-31T06:04:19;4.03;;;3.67;;
10687;SDS011;5392;42.688;23.298;2023-07-31T06:06:50;2.85;;;2.65;;
10687;SDS011;5392;42.688;23.298;2023-07-31T06:09:17;3.92;;;2.60;;
10687;SDS011;5392;42.688;23.298;2023-07-31T06:11:44;2.47;;;2.25;;
10687;SDS011;5392;42.688;23.298;2023-07-31T06:14:11;2.05;;;1.73;;
10687;SDS011;5392;42.688;23.298;2023-07-31T06:16:38;4.43;;;3.40;;
10687;SDS011;5392;42.688;23.298;2023-07-31T06:19:05;10.93;;;2.45;;
10687;SDS011;5392;42.688;23.298;2023-07-31T06:21:33;45.35;;;5.20;;
10687;SDS011;5392;42.688;23.298;2023-07-31T06:24:00;6.70;;;3.05;;
10687;SDS011;5392;42.688;23.298;2023-07-31T06:26:26;2.78;;;1.73;;
10687;SDS011;5392;42.688;23.298;2023-07-31T06:28:53;2.65;;;2.45;;
10687;SDS011;5392;42.688;23.298;2023-07-31T06:31:20;2.83;;;1.40;;
10687;SDS011;5392;42.688;23.298;2023-07-31T06:33:50;1.30;;;1.30;;
10687;SDS011;5392;42.688;23.298;2023-07-31T06:36:18;1.50;;;1.40;;
10687;SDS011;5392;42.688;23.298;2023-07-31T06:38:44;2.55;;;1.50;;
10687;SDS011;5392;42.688;23.298;2023-07-31T06:41:11;2.35;;;1.40;;
10687;SDS011;5392;42.688;23.298;2023-07-31T06:43:38;1.48;;;1.10;;
10687;SDS011;5392;42.688;23.298;2023-07-31T06:46:05;1.40;;;1.00;;
10687;SDS011;5392;42.688;23.298;2023-07-31T06:48:33;2.42;;;1.00;;
10687;SDS011;5392;42.688;23.298;2023-07-31T06:51:00;2.13;;;1.20;;
10687;SDS011;5392;42.688;23.298;2023-07-31T06:53:28;1.85;;;0.80;;
10687;SDS011;5392;42.688;23.298;2023-07-31T06:55:55;0.90;;;0.80;;
10687;SDS011;5392;42.688;23.298;2023-07-31T06:58:22;1.05;;;0.70;;
10687;SDS011;5392;42.688;23.298;2023-07-31T07:00:49;4.80;;;2.30;;
10687;SDS011;5392;42.688;23.298;2023-07-31T07:03:19;3.00;;;0.90;;
10687;SDS011;5392;42.688;23.298;2023-07-31T07:05:46;2.28;;;1.08;;
10687;SDS011;5392;42.688;23.298;2023-07-31T07:08:13;1.05;;;0.70;;
10687;SDS011;5392;42.688;23.298;2023-07-31T07:10:40;2.40;;;0.73;;
10687;SDS011;5392;42.688;23.298;2023-07-31T07:13:07;0.98;;;0.98;;
10687;SDS011;5392;42.688;23.298;2023-07-31T07:15:34;1.52;;;0.60;;
10687;SDS011;5392;42.688;23.298;2023-07-31T07:18:01;2.67;;;0.70;;
10687;SDS011;5392;42.688;23.298;2023-07-31T07:20:28;2.35;;;0.73;;
10687;SDS011;5392;42.688;23.298;2023-07-31T07:22:54;1.23;;;0.65;;
10687;SDS011;5392;42.688;23.298;2023-07-31T07:25:21;3.08;;;0.70;;
10687;SDS011;5392;42.688;23.298;2023-07-31T07:27:48;1.20;;;0.60;;
10687;SDS011;5392;42.688;23.298;2023-07-31T07:30:15;1.20;;;0.60;;
10687;SDS011;5392;42.688;23.298;2023-07-31T07:32:41;0.80;;;0.80;;
10687;SDS011;5392;42.688;23.298;2023-07-31T07:35:08;1.85;;;0.73;;
10687;SDS011;5392;42.688;23.298;2023-07-31T07:37:35;2.05;;;0.60;;
10687;SDS011;5392;42.688;23.298;2023-07-31T07:40:01;0.95;;;0.60;;
10687;SDS011;5392;42.688;23.298;2023-07-31T07:42:29;2.90;;;1.02;;
10687;SDS011;5392;42.688;23.298;2023-07-31T07:44:55;3.30;;;0.90;;
10687;SDS011;5392;42.688;23.298;2023-07-31T07:47:22;0.70;;;0.70;;
10687;SDS011;5392;42.688;23.298;2023-07-31T07:49:49;0.75;;;0.57;;
10687;SDS011;5392;42.688;23.298;2023-07-31T07:52:18;0.50;;;0.50;;
10687;SDS011;5392;42.688;23.298;2023-07-31T07:54:45;0.50;;;0.50;;
10687;SDS011;5392;42.688;23.298;2023-07-31T07:57:12;2.15;;;0.43;;
10687;SDS011;5392;42.688;23.298;2023-07-31T07:59:40;0.47;;;0.45;;
10687;SDS011;5392;42.688;23.298;2023-07-31T08:02:07;1.40;;;0.50;;
10687;SDS011;5392;42.688;23.298;2023-07-31T08:04:34;0.50;;;0.50;;
10687;SDS011;5392;42.688;23.298;2023-07-31T08:07:01;1.85;;;0.50;;
10687;SDS011;5392;42.688;23.298;2023-07-31T08:09:27;4.13;;;0.93;;
10687;SDS011;5392;42.688;23.298;2023-07-31T08:11:54;0.50;;;0.50;;
10687;SDS011;5392;42.688;23.298;2023-07-31T08:14:23;1.42;;;0.60;;
10687;SDS011;5392;42.688;23.298;2023-07-31T08:16:50;1.15;;;0.50;;
10687;SDS011;5392;42.688;23.298;2023-07-31T08:19:17;1.23;;;0.60;;
10687;SDS011;5392;42.688;23.298;2023-07-31T08:21:43;3.50;;;0.60;;
10687;SDS011;5392;42.688;23.298;2023-07-31T08:24:10;0.50;;;0.50;;
10687;SDS011;5392;42.688;23.298;2023-07-31T08:26:37;1.88;;;0.60;;
10687;SDS011;5392;42.688;23.298;2023-07-31T08:29:04;3.13;;;0.57;;
10687;SDS011;5392;42.688;23.298;2023-07-31T08:31:31;0.70;;;0.60;;
10687;SDS011;5392;42.688;23.298;2023-07-31T08:33:58;1.30;;;0.90;;
10687;SDS011;5392;42.688;23.298;2023-07-31T08:36:24;1.30;;;0.60;;
10687;SDS011;5392;42.688;23.298;2023-07-31T08:38:55;2.67;;;1.13;;
10687;SDS011;5392;42.688;23.298;2023-07-31T08:41:22;0.60;;;0.50;;
10687;SDS011;5392;42.688;23.298;2023-07-31T08:43:52;0.55;;;0.55;;
10687;SDS011;5392;42.688;23.298;2023-07-31T08:46:21;1.23;;;0.60;;
10687;SDS011;5392;42.688;23.298;2023-07-31T08:48:48;3.05;;;0.60;;
10687;SDS011;5392;42.688;23.298;2023-07-31T08:51:17;1.38;;;0.60;;
10687;SDS011;5392;42.688;23.298;2023-07-31T08:53:44;1.00;;;0.98;;
10687;SDS011;5392;42.688;23.298;2023-07-31T08:56:11;2.63;;;0.75;;
10687;SDS011;5392;42.688;23.298;2023-07-31T08:58:40;1.17;;;0.50;;
10687;SDS011;5392;42.688;23.298;2023-07-31T09:01:06;2.40;;;0.93;;
10687;SDS011;5392;42.688;23.298;2023-07-31T09:03:34;0.55;;;0.50;;
10687;SDS011;5392;42.688;23.298;2023-07-31T09:06:02;1.58;;;0.60;;
10687;SDS011;5392;42.688;23.298;2023-07-31T09:08:32;1.40;;;0.50;;
10687;SDS011;5392;42.688;23.298;2023-07-31T09:11:00;0.50;;;0.50;;
10687;SDS011;5392;42.688;23.298;2023-07-31T09:13:29;0.60;;;0.60;;
10687;SDS011;5392;42.688;23.298;2023-07-31T09:15:57;1.98;;;0.80;;
10687;SDS011;5392;42.688;23.298;2023-07-31T09:18:24;3.47;;;0.63;;
10687;SDS011;5392;42.688;23.298;2023-07-31T09:21:04;0.50;;;0.50;;
10687;SDS011;5392;42.688;23.298;2023-07-31T09:23:41;1.38;;;0.50;;
10687;SDS011;5392;42.688;23.298;2023-07-31T09:26:08;3.78;;;0.70;;
10687;SDS011;5392;42.688;23.298;2023-07-31T09:28:36;0.60;;;0.60;;
10687;SDS011;5392;42.688;23.298;2023-07-31T09:31:03;2.00;;;0.95;;
10687;SDS011;5392;42.688;23.298;2023-07-31T09:33:29;1.33;;;0.70;;
10687;SDS011;5392;42.688;23.298;2023-07-31T09:35:58;0.50;;;0.50;;
10687;SDS011;5392;42.688;23.298;2023-07-31T09:38:26;0.88;;;0.50;;
10687;SDS011;5392;42.688;23.298;2023-07-31T09:40:53;0.57;;;0.57;;
10687;SDS011;5392;42.688;23.298;2023-07-31T09:43:21;0.77;;;0.70;;
10687;SDS011;5392;42.688;23.298;2023-07-31T09:45:48;0.50;;;0.50;;
10687;SDS011;5392;42.688;23.298;2023-07-31T09:48:23;1.45;;;0.50;;
10687;SDS011;5392;42.688;23.298;2023-07-31T09:50:53;0.55;;;0.50;;
10687;SDS011;5392;42.688;23.298;2023-07-31T09:53:27;0.95;;;0.50;;
10687;SDS011;5392;42.688;23.298;2023-07-31T09:55:58;1.92;;;0.50;;
10687;SDS011;5392;42.688;23.298;2023-07-31T09:58:26;4.03;;;0.50;;
10687;SDS011;5392;42.688;23.298;2023-07-31T10:00:55;0.60;;;0.50;;
10687;SDS011;5392;42.688;23.298;2023-07-31T10:03:25;1.95;;;0.50;;
10687;SDS011;5392;42.688;23.298;2023-07-31T10:05:53;0.40;;;0.40;;
10687;SDS011;5392;42.688;23.298;2023-07-31T10:08:23;5.40;;;0.52;;
10687;SDS011;5392;42.688;23.298;2023-07-31T10:10:58;2.35;;;0.50;;
10687;SDS011;5392;42.688;23.298;2023-07-31T10:13:25;0.63;;;0.40;;
10687;SDS011;5392;42.688;23.298;2023-07-31T10:15:57;0.60;;;0.40;;
10687;SDS011;5392;42.688;23.298;2023-07-31T10:18:26;0.80;;;0.50;;
10687;SDS011;5392;42.688;23.298;2023-07-31T10:20:53;7.03;;;0.47;;
10687;SDS011;5392;42.688;23.298;2023-07-31T10:23:21;1.50;;;0.60;;
10687;SDS011;5392;42.688;23.298;2023-07-31T10:25:51;0.52;;;0.30;;
10687;SDS011;5392;42.688;23.298;2023-07-31T10:28:20;0.40;;;0.32;;
10687;SDS011;5392;42.688;23.298;2023-07-31T10:30:47;1.02;;;0.40;;
10687;SDS011;5392;42.688;23.298;2023-07-31T10:33:17;1.88;;;0.40;;
10687;SDS011;5392;42.688;23.298;2023-07-31T10:35:47;1.20;;;0.45;;
10687;SDS011;5392;42.688;23.298;2023-07-31T10:38:14;0.40;;;0.40;;
10687;SDS011;5392;42.688;23.298;2023-07-31T10:40:42;0.90;;;0.40;;
10687;SDS011;5392;42.688;23.298;2023-07-31T10:43:09;3.33;;;0.50;;
10687;SDS011;5392;42.688;23.298;2023-07-31T10:45:51;0.50;;;0.40;;
10687;SDS011;5392;42.688;23.298;2023-07-31T10:48:20;0.40;;;0.40;;
10687;SDS011;5392;42.688;23.298;2023-07-31T10:50:48;0.85;;;0.40;;
10687;SDS011;5392;42.688;23.298;2023-07-31T10:53:31;0.32;;;0.32;;
10687;SDS011;5392;42.688;23.298;2023-07-31T10:55:59;0.30;;;0.30;;
10687;SDS011;5392;42.688;23.298;2023-07-31T10:58:27;0.63;;;0.35;;
10687;SDS011;5392;42.688;23.298;2023-07-31T11:00:58;1.38;;;0.30;;
10687;SDS011;5392;42.688;23.298;2023-07-31T11:03:27;1.20;;;0.30;;
10687;SDS011;5392;42.688;23.298;2023-07-31T11:06:09;1.65;;;0.30;;
10687;SDS011;5392;42.688;23.298;2023-07-31T11:08:43;0.30;;;0.30;;
10687;SDS011;5392;42.688;23.298;2023-07-31T11:11:12;0.65;;;0.30;;
10687;SDS011;5392;42.688;23.298;2023-07-31T11:13:44;0.85;;;0.30;;
10687;SDS011;5392;42.688;23.298;2023-07-31T11:16:21;1.77;;;0.40;;
10687;SDS011;5392;42.688;23.298;2023-07-31T11:18:50;0.40;;;0.40;;
10687;SDS011;5392;42.688;23.298;2023-07-31T11:21:23;0.40;;;0.40;;
10687;SDS011;5392;42.688;23.298;2023-07-31T11:23:56;0.40;;;0.40;;
10687;SDS011;5392;42.688;23.298;2023-07-31T11:26:26;2.28;;;0.30;;
10687;SDS011;5392;42.688;23.298;2023-07-31T11:28:53;2.83;;;0.40;;
10687;SDS011;5392;42.688;23.298;2023-07-31T11:31:20;0.75;;;0.30;;
10687;SDS011;5392;42.688;23.298;2023-07-31T11:33:48;0.22;;;0.22;;
10687;SDS011;5392;42.688;23.298;2023-07-31T11:36:18;0.30;;;0.30;;
10687;SDS011;5392;42.688;23.298;2023-07-31T11:38:46;0.50;;;0.40;;
10687;SDS011;5392;42.688;23.298;2023-07-31T11:41:14;0.40;;;0.40;;
10687;SDS011;5392;42.688;23.298;2023-07-31T11:43:43;0.85;;;0.57;;
10687;SDS011;5392;42.688;23.298;2023-07-31T11:46:10;0.50;;;0.50;;
10687;SDS011;5392;42.688;23.298;2023-07-31T11:48:37;1.20;;;0.43;;
10687;SDS011;5392;42.688;23.298;2023-07-31T11:51:06;2.40;;;0.50;;
10687;SDS011;5392;42.688;23.298;2023-07-31T11:53:44;0.50;;;0.50;;
10687;SDS011;5392;42.688;23.298;2023-07-31T11:56:14;0.82;;;0.50;;
10687;SDS011;5392;42.688;23.298;2023-07-31T11:58:44;1.65;;;0.60;;
10687;SDS011;5392;42.688;23.298;2023-07-31T12:01:14;1.35;;;0.50;;
10687;SDS011;5392;42.688;23.298;2023-07-31T12:03:44;1.05;;;0.63;;
10687;SDS011;5392;42.688;23.298;2023-07-31T12:06:13;0.80;;;0.80;;
10687;SDS011;5392;42.688;23.298;2023-07-31T12:08:39;3.45;;;1.30;;
10687;SDS011;5392;42.688;23.298;2023-07-31T12:11:07;2.78;;;1.48;;
10687;SDS011;5392;42.688;23.298;2023-07-31T12:13:39;1.90;;;1.30;;
10687;SDS011;5392;42.688;23.298;2023-07-31T12:16:06;1.02;;;1.02;;
10687;SDS011;5392;42.688;23.298;2023-07-31T12:18:34;2.15;;;1.92;;
10687;SDS011;5392;42.688;23.298;2023-07-31T12:21:04;3.63;;;3.13;;
10687;SDS011;5392;42.688;23.298;2023-07-31T12:23:32;2.53;;;2.33;;
10687;SDS011;5392;42.688;23.298;2023-07-31T12:26:07;1.83;;;1.83;;
10687;SDS011;5392;42.688;23.298;2023-07-31T12:28:40;1.52;;;1.52;;
10687;SDS011;5392;42.688;23.298;2023-07-31T12:31:17;2.15;;;1.70;;
10687;SDS011;5392;42.688;23.298;2023-07-31T12:33:48;1.63;;;1.15;;
10687;SDS011;5392;42.688;23.298;2023-07-31T12:36:18;2.38;;;0.82;;
10687;SDS011;5392;42.688;23.298;2023-07-31T12:38:47;1.13;;;1.00;;
10687;SDS011;5392;42.688;23.298;2023-07-31T12:41:14;2.17;;;1.95;;
10687;SDS011;5392;42.688;23.298;2023-07-31T12:43:42;1.58;;;1.58;;
10687;SDS011;5392;42.688;23.298;2023-07-31T12:46:10;1.88;;;1.85;;
10687;SDS011;5392;42.688;23.298;2023-07-31T12:48:37;2.42;;;2.33;;
10687;SDS011;5392;42.688;23.298;2023-07-31T12:51:05;2.78;;;2.58;;
10687;SDS011;5392;42.688;23.298;2023-07-31T12:53:33;2.60;;;2.50;;
10687;SDS011;5392;42.688;23.298;2023-07-31T12:56:00;3.65;;;1.70;;
10687;SDS011;5392;42.688;23.298;2023-07-31T12:58:27;2.08;;;1.98;;
10687;SDS011;5392;42.688;23.298;2023-07-31T13:00:54;2.17;;;1.90;;
10687;SDS011;5392;42.688;23.298;2023-07-31T13:03:22;2.85;;;2.65;;
10687;SDS011;5392;42.688;23.298;2023-07-31T13:05:48;2.55;;;2.17;;
10687;SDS011;5392;42.688;23.298;2023-07-31T13:08:16;2.45;;;2.30;;
10687;SDS011;5392;42.688;23.298;2023-07-31T13:10:44;2.70;;;2.50;;
10687;SDS011;5392;42.688;23.298;2023-07-31T13:13:11;2.30;;;2.10;;
10687;SDS011;5392;42.688;23.298;2023-07-31T13:15:38;2.17;;;1.90;;
10687;SDS011;5392;42.688;23.298;2023-07-31T13:18:05;5.35;;;2.35;;
10687;SDS011;5392;42.688;23.298;2023-07-31T13:20:31;2.08;;;1.98;;
10687;SDS011;5392;42.688;23.298;2023-07-31T13:22:58;1.40;;;1.40;;
10687;SDS011;5392;42.688;23.298;2023-07-31T13:25:25;3.40;;;2.25;;
10687;SDS011;5392;42.688;23.298;2023-07-31T13:27:51;6.88;;;1.88;;
10687;SDS011;5392;42.688;23.298;2023-07-31T13:30:18;1.50;;;1.40;;
10687;SDS011;5392;42.688;23.298;2023-07-31T13:32:45;0.90;;;0.90;;
10687;SDS011;5392;42.688;23.298;2023-07-31T13:35:12;2.55;;;1.40;;
10687;SDS011;5392;42.688;23.298;2023-07-31T13:37:38;1.20;;;1.20;;
10687;SDS011;5392;42.688;23.298;2023-07-31T13:40:05;1.45;;;1.10;;
10687;SDS011;5392;42.688;23.298;2023-07-31T13:42:33;1.67;;;1.27;;
10687;SDS011;5392;42.688;23.298;2023-07-31T13:44:59;1.33;;;1.30;;
10687;SDS011;5392;42.688;23.298;2023-07-31T13:47:29;2.67;;;1.05;;
10687;SDS011;5392;42.688;23.298;2023-07-31T13:49:57;1.30;;;1.30;;
10687;SDS011;5392;42.688;23.298;2023-07-31T13:52:24;3.13;;;0.98;;
10687;SDS011;5392;42.688;23.298;2023-07-31T13:54:51;0.73;;;0.73;;
10687;SDS011;5392;42.688;23.298;2023-07-31T13:57:17;0.95;;;0.95;;
10687;SDS011;5392;42.688;23.298;2023-07-31T13:59:44;0.70;;;0.70;;
10687;SDS011;5392;42.688;23.298;2023-07-31T14:02:11;0.88;;;0.88;;
10687;SDS011;5392;42.688;23.298;2023-07-31T14:04:38;0.93;;;0.80;;
10687;SDS011;5392;42.688;23.298;2023-07-31T14:07:04;2.35;;;1.42;;
10687;SDS011;5392;42.688;23.298;2023-07-31T14:09:31;1.48;;;0.85;;
10687;SDS011;5392;42.688;23.298;2023-07-31T14:11:58;1.20;;;1.20;;
10687;SDS011;5392;42.688;23.298;2023-07-31T14:14:25;1.00;;;1.00;;
10687;SDS011;5392;42.688;23.298;2023-07-31T14:16:51;1.30;;;0.90;;
10687;SDS011;5392;42.688;23.298;2023-07-31T14:19:18;1.10;;;1.10;;
10687;SDS011;5392;42.688;23.298;2023-07-31T14:21:45;1.95;;;1.23;;
10687;SDS011;5392;42.688;23.298;2023-07-31T14:24:26;0.70;;;0.70;;
10687;SDS011;5392;42.688;23.298;2023-07-31T14:26:53;1.95;;;1.00;;
10687;SDS011;5392;42.688;23.298;2023-07-31T14:29:20;1.15;;;1.15;;
10687;SDS011;5392;42.688;23.298;2023-07-31T14:31:46;1.27;;;1.17;;
10687;SDS011;5392;42.688;23.298;2023-07-31T14:34:13;1.88;;;0.88;;
10687;SDS011;5392;42.688;23.298;2023-07-31T14:36:40;0.95;;;0.88;;
10687;SDS011;5392;42.688;23.298;2023-07-31T14:39:07;1.73;;;0.93;;
10687;SDS011;5392;42.688;23.298;2023-07-31T14:41:34;0.90;;;0.90;;
10687;SDS011;5392;42.688;23.298;2023-07-31T14:44:01;1.67;;;1.30;;
10687;SDS011;5392;42.688;23.298;2023-07-31T14:46:27;1.40;;;0.90;;
10687;SDS011;5392;42.688;23.298;2023-07-31T14:48:54;0.80;;;0.80;;
10687;SDS011;5392;42.688;23.298;2023-07-31T14:51:21;1.00;;;0.88;;
10687;SDS011;5392;42.688;23.298;2023-07-31T14:53:47;0.90;;;0.90;;
10687;SDS011;5392;42.688;23.298;2023-07-31T14:56:14;2.17;;;1.10;;